Time;durP1;ratioP1;P1;durP2;ratioP2;P2;SDS_P1;SDS_P2;PMS_P1;PMS_P2;Temp;Humidity;BMP_temperature;BMP_pressure;BME280_temperature;BME280_humidity;BME280_pressure;Samples;Min_cycle;Max_cycle;Signal;HPM_P1;HPM_P2
2022/01/26 00:07:57;;;;;;;17.67;10.45;;;2.00;99.90;;;;;;5013374;28;20053;-88
2022/01/26 00:10:24;;;;;;;12.95;8.60;;;2.00;99.90;;;;;;5012408;28;20085;-88
2022/01/26 00:12:51;;;;;;;12.35;8.02;;;2.00;99.90;;;;;;5028188;28;20049;-88
2022/01/26 00:15:18;;;;;;;16.13;8.00;;;2.10;99.90;;;;;;5028080;28;20136;-88
2022/01/26 00:17:44;;;;;;;16.48;7.85;;;2.10;99.90;;;;;;5012738;28;20089;-88
2022/01/26 00:20:22;;;;;;;12.70;7.78;;;2.10;99.90;;;;;;5028404;28;20049;-88
2022/01/26 00:38:54;;;;;;;14.70;9.45;;;1.80;99.90;;;;;;5015921;28;20053;-88
2022/01/26 00:41:33;;;;;;;16.52;10.05;;;1.70;99.90;;;;;;5031805;28;20399;-88
2022/01/26 00:44:01;;;;;;;15.65;10.20;;;1.60;99.90;;;;;;5014974;28;20046;-88
2022/01/26 00:46:28;;;;;;;15.68;10.38;;;1.50;99.90;;;;;;5014991;28;20498;-88
2022/01/26 00:48:55;;;;;;;17.05;11.00;;;1.60;99.90;;;;;;5015746;28;20414;-87
2022/01/26 00:51:22;;;;;;;17.65;9.88;;;1.70;99.90;;;;;;5014960;28;20060;-88
2022/01/26 00:54:00;;;;;;;17.10;11.10;;;1.70;99.90;;;;;;5031177;28;20145;-88
2022/01/26 00:56:28;;;;;;;18.55;11.52;;;1.70;99.90;;;;;;5015871;28;20482;-88
2022/01/26 00:58:55;;;;;;;16.58;10.73;;;1.70;99.90;;;;;;5016012;28;20049;-88
2022/01/26 01:01:22;;;;;;;22.10;11.88;;;1.50;99.90;;;;;;5014767;28;20049;-88
2022/01/26 01:03:49;;;;;;;21.45;12.10;;;1.50;99.90;;;;;;5014627;28;20145;-88
2022/01/26 01:06:28;;;;;;;19.23;10.90;;;1.50;99.90;;;;;;5014835;28;20049;-88
2022/01/26 01:08:57;;;;;;;20.83;11.50;;;1.50;99.90;;;;;;5015659;28;20212;-87
2022/01/26 01:11:25;;;;;;;21.73;11.95;;;1.50;99.90;;;;;;5015654;28;20137;-88
2022/01/26 01:13:53;;;;;;;19.55;11.35;;;1.50;99.90;;;;;;5015404;28;20427;-88
2022/01/26 01:16:22;;;;;;;21.05;11.60;;;1.50;99.90;;;;;;5014463;28;20050;-88
2022/01/26 01:19:08;;;;;;;20.65;12.35;;;1.50;99.90;;;;;;5014412;28;20050;-88
2022/01/26 01:29:36;;;;;;;21.63;12.02;;;1.40;99.90;;;;;;5015012;28;20056;-88
2022/01/26 01:32:11;;;;;;;21.67;12.20;;;1.60;99.90;;;;;;5014314;28;20052;-88
2022/01/26 01:34:39;;;;;;;21.60;12.63;;;1.60;99.90;;;;;;5014220;28;20050;-88
2022/01/26 01:37:09;;;;;;;19.10;11.63;;;1.50;99.90;;;;;;5014294;28;20053;-87
2022/01/26 01:39:37;;;;;;;21.15;11.55;;;1.60;99.90;;;;;;5013679;28;20053;-88
2022/01/26 01:42:08;;;;;;;19.13;11.18;;;1.60;99.90;;;;;;5013061;28;20045;-88
2022/01/26 01:44:36;;;;;;;18.63;11.40;;;1.60;99.90;;;;;;5014022;28;20096;-88
2022/01/26 01:47:05;;;;;;;20.90;12.50;;;1.60;99.90;;;;;;5014092;28;20058;-88
2022/01/26 01:49:32;;;;;;;21.02;13.10;;;1.70;99.90;;;;;;5014005;28;20050;-88
2022/01/26 01:52:02;;;;;;;20.85;12.10;;;1.60;99.90;;;;;;5013757;28;20052;-88
2022/01/26 01:54:29;;;;;;;20.42;11.95;;;1.60;99.90;;;;;;5014062;28;20049;-88
2022/01/26 01:56:58;;;;;;;18.58;11.32;;;1.70;99.90;;;;;;5013794;28;20052;-88
2022/01/26 01:59:31;;;;;;;21.98;12.85;;;1.80;99.90;;;;;;5013853;28;20048;-88
2022/01/26 02:02:02;;;;;;;19.15;11.18;;;1.80;99.90;;;;;;5013667;28;20053;-88
2022/01/26 02:04:29;;;;;;;18.88;11.07;;;1.70;99.90;;;;;;5013756;28;20431;-88
2022/01/26 02:06:56;;;;;;;18.27;10.40;;;1.60;99.90;;;;;;5013454;28;20064;-88
2022/01/26 02:09:23;;;;;;;17.88;10.73;;;1.70;99.90;;;;;;5013552;28;20054;-88
2022/01/26 02:11:53;;;;;;;17.67;10.55;;;1.80;99.90;;;;;;5013407;28;20048;-88
2022/01/26 02:14:29;;;;;;;17.95;11.40;;;1.80;99.90;;;;;;5014545;28;20054;-88
2022/01/26 02:20:25;;;;;;;20.40;11.23;;;1.90;99.90;;;;;;5014535;28;20064;-88
2022/01/26 02:50:56;;;;;;;10.98;6.40;;;1.80;99.90;;;;;;5014102;28;20398;-88
2022/01/26 02:53:39;;;;;;;13.02;7.60;;;1.80;99.90;;;;;;5013523;28;20488;-88
2022/01/26 02:56:12;;;;;;;10.43;6.85;;;1.80;99.90;;;;;;5029243;28;20141;-88
2022/01/26 02:58:56;;;;;;;8.77;6.63;;;1.80;99.90;;;;;;5013728;28;20050;-88
2022/01/26 03:04:10;;;;;;;17.08;7.22;;;1.80;99.90;;;;;;5013430;28;20051;-88
2022/01/26 03:06:48;;;;;;;7.82;5.93;;;1.80;99.90;;;;;;5028609;28;20053;-88
2022/01/26 03:09:21;;;;;;;12.10;6.70;;;1.80;99.90;;;;;;5013386;28;20056;-88
2022/01/26 03:11:48;;;;;;;9.38;6.57;;;1.80;99.90;;;;;;5028615;28;20054;-88
2022/01/26 03:14:38;;;;;;;9.07;5.60;;;1.80;99.90;;;;;;5028708;28;20046;-88
2022/01/26 03:17:28;;;;;;;11.68;7.13;;;1.80;99.90;;;;;;5012516;28;20053;-88
2022/01/26 03:20:01;;;;;;;12.30;6.32;;;1.80;99.90;;;;;;5028469;28;20053;-88
2022/01/26 03:31:32;;;;;;;7.80;6.38;;;1.80;99.90;;;;;;5013207;28;20208;-87
2022/01/26 03:36:32;;;;;;;7.75;6.72;;;1.80;99.90;;;;;;5013188;28;20049;-88
2022/01/26 03:39:05;;;;;;;10.93;6.47;;;1.80;99.90;;;;;;5028359;28;20100;-88
2022/01/26 03:41:41;;;;;;;7.70;6.20;;;1.80;99.90;;;;;;5028342;28;20138;-88
2022/01/26 03:44:09;;;;;;;8.95;6.60;;;1.80;99.90;;;;;;5028724;28;20521;-88
2022/01/26 03:46:36;;;;;;;10.48;6.65;;;1.70;99.90;;;;;;5013011;28;20050;-88
2022/01/26 03:49:05;;;;;;;10.23;7.03;;;1.70;99.90;;;;;;5013038;28;20104;-88
2022/01/26 03:51:33;;;;;;;8.75;6.72;;;1.60;99.90;;;;;;5028592;28;20566;-88
2022/01/26 03:54:00;;;;;;;8.32;6.07;;;1.60;99.90;;;;;;5030055;28;20050;-87
2022/01/26 03:56:27;;;;;;;10.55;6.57;;;1.60;99.90;;;;;;5029030;28;20053;-88
2022/01/26 03:58:54;;;;;;;7.95;5.65;;;1.50;99.90;;;;;;5028233;28;20057;-87
2022/01/26 04:01:21;;;;;;;10.80;6.68;;;1.50;99.90;;;;;;5028107;28;20054;-88
2022/01/26 04:03:48;;;;;;;10.05;6.35;;;1.50;99.90;;;;;;5027943;28;20053;-88
2022/01/26 04:06:16;;;;;;;9.32;6.07;;;1.50;99.90;;;;;;5031663;28;20053;-88
2022/01/26 04:08:45;;;;;;;8.75;6.60;;;1.50;99.90;;;;;;5032035;28;20129;-88
2022/01/26 04:13:43;;;;;;;10.40;7.13;;;1.50;99.90;;;;;;5016520;28;20050;-88
2022/01/26 04:16:10;;;;;;;9.80;6.00;;;1.50;99.90;;;;;;5031708;28;20056;-88
2022/01/26 04:18:39;;;;;;;12.13;6.43;;;1.50;99.90;;;;;;5031668;28;20056;-88
2022/01/26 04:21:17;;;;;;;10.32;6.32;;;1.50;99.90;;;;;;5031545;28;20499;-88
2022/01/26 04:23:52;;;;;;;14.23;7.35;;;1.50;99.90;;;;;;5031681;28;20067;-87
2022/01/26 04:26:25;;;;;;;11.75;6.80;;;1.50;99.90;;;;;;5031599;28;20170;-88
2022/01/26 04:29:01;;;;;;;9.70;6.25;;;1.50;99.90;;;;;;5031323;28;20060;-87
2022/01/26 04:31:28;;;;;;;11.82;7.30;;;1.50;99.90;;;;;;5031663;28;21453;-87
2022/01/26 04:33:55;;;;;;;9.93;6.70;;;1.50;99.90;;;;;;5031707;28;20050;-87
2022/01/26 04:36:28;;;;;;;9.25;6.13;;;1.50;99.90;;;;;;5030865;28;20045;-88
2022/01/26 04:38:59;;;;;;;;;;;1.60;99.90;;;;;;5031770;28;20104;-88
2022/01/26 04:43:57;;;;;;;12.15;6.75;;;1.50;99.90;;;;;;5015794;28;20054;-88
2022/01/26 04:46:26;;;;;;;10.15;6.47;;;1.50;99.90;;;;;;5031430;28;20057;-88
2022/01/26 04:48:54;;;;;;;7.57;5.82;;;1.50;99.90;;;;;;5015866;28;20050;-88
2022/01/26 04:51:21;;;;;;;10.13;6.20;;;1.50;99.90;;;;;;5015992;28;20046;-88
2022/01/26 04:53:48;;;;;;;8.18;5.75;;;1.50;99.90;;;;;;5031425;28;20050;-88
2022/01/26 04:56:15;;;;;;;12.30;6.50;;;1.60;99.90;;;;;;5031416;28;20473;-88
2022/01/26 04:58:42;;;;;;;8.40;5.68;;;1.60;99.90;;;;;;5031281;28;20046;-88
2022/01/26 05:01:09;;;;;;;12.30;6.47;;;1.60;99.90;;;;;;5031450;28;20409;-88
2022/01/26 05:03:36;;;;;;;9.35;5.75;;;1.60;99.90;;;;;;5030934;28;20071;-88
2022/01/26 05:06:03;;;;;;;10.55;5.57;;;1.60;99.90;;;;;;5014460;28;20081;-87
2022/01/26 05:08:30;;;;;;;8.23;5.28;;;1.60;99.90;;;;;;5031039;28;20045;-88
2022/01/26 05:10:57;;;;;;;8.68;5.97;;;1.50;99.90;;;;;;5030886;28;20501;-88
2022/01/26 05:13:25;;;;;;;10.48;5.50;;;1.50;99.90;;;;;;5030951;28;20050;-88
2022/01/26 05:15:52;;;;;;;8.77;5.22;;;1.50;99.90;;;;;;5030347;28;20060;-88
2022/01/26 05:18:19;;;;;;;10.18;5.75;;;1.50;99.90;;;;;;5015433;28;20061;-88
2022/01/26 05:20:45;;;;;;;7.25;5.32;;;1.50;99.90;;;;;;5030767;28;20430;-88
2022/01/26 05:23:12;;;;;;;7.80;5.53;;;1.50;99.90;;;;;;5030620;28;20494;-88
2022/01/26 05:25:40;;;;;;;6.95;5.00;;;1.50;99.90;;;;;;5029705;28;20498;-88
2022/01/26 05:28:07;;;;;;;6.70;5.30;;;1.50;99.90;;;;;;5030327;28;20486;-88
2022/01/26 05:30:33;;;;;;;9.98;6.07;;;1.50;99.90;;;;;;5014784;28;20054;-88
2022/01/26 05:33:00;;;;;;;10.50;6.25;;;1.50;99.90;;;;;;5030364;28;20483;-88
2022/01/26 05:35:27;;;;;;;8.45;5.63;;;1.50;99.90;;;;;;5030356;28;20053;-88
2022/01/26 05:37:54;;;;;;;9.98;5.57;;;1.60;99.90;;;;;;5030167;28;20046;-87
2022/01/26 05:40:22;;;;;;;10.35;5.70;;;1.60;99.90;;;;;;5030087;28;20061;-88
2022/01/26 05:42:49;;;;;;;9.70;5.10;;;1.60;99.90;;;;;;5029953;28;20057;-88
2022/01/26 05:45:23;;;;;;;6.82;4.70;;;1.60;99.90;;;;;;5014783;28;20046;-88
2022/01/26 05:47:50;;;;;;;8.70;5.25;;;1.60;99.90;;;;;;5030352;28;20042;-88
2022/01/26 05:50:19;;;;;;;8.18;4.95;;;1.60;99.90;;;;;;5029938;28;20060;-88
2022/01/26 05:52:46;;;;;;;9.70;4.97;;;1.60;99.90;;;;;;5014660;28;20175;-88
2022/01/26 05:55:13;;;;;;;8.52;4.63;;;1.60;99.90;;;;;;5030097;28;20056;-88
2022/01/26 05:57:40;;;;;;;12.32;5.50;;;1.60;99.90;;;;;;5029917;28;20052;-88
2022/01/26 06:00:07;;;;;;;5.28;4.50;;;1.60;99.90;;;;;;5029827;28;20049;-88
2022/01/26 06:02:34;;;;;;;5.05;4.40;;;1.60;99.90;;;;;;5029796;28;20046;-88
2022/01/26 06:05:01;;;;;;;7.93;4.60;;;1.60;99.90;;;;;;5029679;28;20056;-87
2022/01/26 06:07:27;;;;;;;9.23;6.32;;;1.60;99.90;;;;;;5014253;28;20048;-88
2022/01/26 06:09:54;;;;;;;19.25;5.95;;;1.60;99.90;;;;;;5013914;28;20053;-88
2022/01/26 06:12:21;;;;;;;11.48;5.78;;;1.60;99.90;;;;;;5029449;28;20076;-88
2022/01/26 06:14:48;;;;;;;12.07;5.68;;;1.60;99.90;;;;;;5012908;28;20060;-88
2022/01/26 06:17:14;;;;;;;10.65;6.13;;;1.60;99.90;;;;;;5030116;28;20046;-88
2022/01/26 06:19:41;;;;;;;10.43;6.22;;;1.50;99.90;;;;;;5029400;28;20064;-87
2022/01/26 06:22:08;;;;;;;13.32;6.05;;;1.50;99.90;;;;;;5029934;28;20518;-88
2022/01/26 06:24:35;;;;;;;11.13;5.55;;;1.40;99.90;;;;;;5014608;28;20050;-87
2022/01/26 06:27:02;;;;;;;7.93;5.80;;;1.40;99.90;;;;;;5030828;28;20052;-88
2022/01/26 06:29:30;;;;;;;10.18;5.47;;;1.30;99.90;;;;;;5030081;28;20057;-88
2022/01/26 06:31:57;;;;;;;13.15;5.07;;;1.30;99.90;;;;;;5030156;28;20052;-88
2022/01/26 06:34:24;;;;;;;9.32;5.35;;;1.30;99.90;;;;;;5029563;28;20108;-88
2022/01/26 06:36:51;;;;;;;11.05;5.65;;;1.30;99.90;;;;;;5029348;28;20060;-87
2022/01/26 06:39:18;;;;;;;12.07;5.75;;;1.40;99.90;;;;;;5013075;28;20069;-88
2022/01/26 06:41:54;;;;;;;;;;;1.40;99.90;;;;;;5014477;28;20045;-88
2022/01/26 06:44:34;;;;;;;9.55;6.85;;;1.40;99.90;;;;;;5013346;28;19921;-88
2022/01/26 06:47:20;;;;;;;10.98;5.85;;;1.40;99.90;;;;;;5013097;28;20561;-88
2022/01/26 06:49:47;;;;;;;13.88;6.10;;;1.40;99.90;;;;;;5029129;28;20064;-88
2022/01/26 06:52:13;;;;;;;8.85;5.00;;;1.40;99.90;;;;;;5028973;28;20133;-88
2022/01/26 06:54:40;;;;;;;13.77;8.98;;;1.40;99.90;;;;;;5013864;28;20406;-88
2022/01/26 06:57:07;;;;;;;17.27;10.40;;;1.40;99.90;;;;;;5029488;28;20046;-88
2022/01/26 06:59:34;;;;;;;16.02;10.23;;;1.40;99.90;;;;;;5012974;28;20050;-88
2022/01/26 07:02:00;;;;;;;8.68;6.60;;;1.40;99.90;;;;;;5012746;28;20060;-88
2022/01/26 07:04:27;;;;;;;13.55;6.32;;;1.40;99.90;;;;;;5029042;28;20045;-87
2022/01/26 07:06:54;;;;;;;10.73;6.88;;;1.50;99.90;;;;;;5028754;28;20504;-88
2022/01/26 07:09:21;;;;;;;8.95;6.57;;;1.50;99.90;;;;;;5013973;28;20060;-88
2022/01/26 07:11:48;;;;;;;15.80;8.73;;;1.50;99.90;;;;;;5029084;28;20520;-88
2022/01/26 07:14:26;;;;;;;10.82;8.65;;;1.50;99.90;;;;;;5012851;28;20056;-88
2022/01/26 07:19:54;;;;;;;12.02;6.75;;;1.60;99.90;;;;;;5013720;28;20045;-88
2022/01/26 07:22:21;;;;;;;10.80;6.47;;;1.60;99.90;;;;;;5013641;28;20049;-88
2022/01/26 07:24:47;;;;;;;10.73;6.75;;;1.60;99.90;;;;;;5013369;28;20057;-88
2022/01/26 07:27:15;;;;;;;10.90;7.20;;;1.50;99.90;;;;;;5013247;28;20107;-88
2022/01/26 07:29:42;;;;;;;22.17;8.95;;;1.50;99.90;;;;;;5028589;28;20409;-88
2022/01/26 07:32:08;;;;;;;13.02;8.23;;;1.50;99.90;;;;;;5028962;28;20049;-88
2022/01/26 07:34:37;;;;;;;14.07;7.75;;;1.50;99.90;;;;;;5028827;28;20042;-88
2022/01/26 07:37:06;;;;;;;13.52;8.23;;;1.50;99.90;;;;;;5029127;28;20060;-88
2022/01/26 07:39:43;;;;;;;13.98;7.95;;;1.50;99.90;;;;;;5015578;28;20502;-88
2022/01/26 07:42:11;;;;;;;13.90;8.25;;;1.50;99.90;;;;;;5033524;28;20491;-88
2022/01/26 07:44:38;;;;;;;18.25;8.52;;;1.50;99.90;;;;;;5017492;28;20050;-88
2022/01/26 07:47:05;;;;;;;19.23;9.65;;;1.50;99.90;;;;;;5033708;28;20084;-88
2022/01/26 07:49:31;;;;;;;14.95;9.65;;;1.40;99.90;;;;;;5032260;28;20056;-88
2022/01/26 07:51:59;;;;;;;17.35;11.10;;;1.40;99.90;;;;;;5032473;28;20108;-88
2022/01/26 07:54:26;;;;;;;15.65;10.15;;;1.40;99.90;;;;;;5017127;28;20095;-88
2022/01/26 07:56:53;;;;;;;17.30;9.10;;;1.40;99.90;;;;;;5018268;28;20089;-88
2022/01/26 07:59:20;;;;;;;15.98;8.80;;;1.40;99.90;;;;;;5033189;28;20589;-88
2022/01/26 08:01:47;;;;;;;15.07;8.50;;;1.40;99.90;;;;;;5032088;28;20056;-87
2022/01/26 08:04:14;;;;;;;13.10;8.80;;;1.40;99.90;;;;;;5033045;28;20068;-88
2022/01/26 08:06:42;;;;;;;13.25;8.35;;;1.40;99.90;;;;;;5018619;28;20053;-88
2022/01/26 08:09:09;;;;;;;15.05;9.20;;;1.40;99.90;;;;;;5032834;28;20054;-88
2022/01/26 08:11:35;;;;;;;13.80;8.52;;;1.40;99.90;;;;;;5032537;28;20045;-88
2022/01/26 08:14:02;;;;;;;12.48;8.35;;;1.50;99.90;;;;;;5032362;28;20050;-88
2022/01/26 08:16:29;;;;;;;14.18;8.82;;;1.50;99.90;;;;;;5016817;28;20058;-88
2022/01/26 08:18:56;;;;;;;16.48;8.55;;;1.50;99.90;;;;;;5032668;28;20056;-88
2022/01/26 08:21:23;;;;;;;15.77;9.45;;;1.60;99.90;;;;;;5016031;28;20056;-88
2022/01/26 08:23:50;;;;;;;15.07;8.77;;;1.60;99.90;;;;;;5031744;28;20052;-85
2022/01/26 08:26:22;;;;;;;13.63;8.82;;;1.60;99.90;;;;;;5031917;28;20510;-88
2022/01/26 08:28:54;;;;;;;15.60;9.25;;;1.60;99.90;;;;;;5031897;28;20193;-88
2022/01/26 08:31:21;;;;;;;16.45;9.32;;;1.70;99.90;;;;;;5016479;28;20045;-88
2022/01/26 08:33:48;;;;;;;14.93;10.07;;;1.70;99.90;;;;;;5031722;28;20088;-88
2022/01/26 08:36:16;;;;;;;15.35;9.80;;;1.80;99.90;;;;;;5015319;28;20072;-88
2022/01/26 08:38:42;;;;;;;15.73;9.32;;;1.90;99.90;;;;;;5031462;28;20045;-88
2022/01/26 08:41:10;;;;;;;16.10;9.68;;;2.00;99.90;;;;;;5031630;28;20052;-88
2022/01/26 08:43:37;;;;;;;15.20;9.77;;;2.00;99.90;;;;;;5031683;28;20100;-88
2022/01/26 08:46:04;;;;;;;15.45;10.00;;;2.10;99.90;;;;;;5031879;28;20136;-88
2022/01/26 08:48:31;;;;;;;20.77;9.85;;;2.10;99.90;;;;;;5015469;28;20411;-88
2022/01/26 08:50:58;;;;;;;18.67;9.88;;;2.20;99.90;;;;;;5030607;28;20052;-88
2022/01/26 08:53:25;;;;;;;19.88;10.52;;;2.30;99.90;;;;;;5031658;28;20046;-88
2022/01/26 08:55:52;;;;;;;17.23;9.77;;;2.20;99.90;;;;;;5015940;28;20478;-88
2022/01/26 08:58:19;;;;;;;14.65;8.55;;;2.10;99.90;;;;;;5031042;28;20046;-88
2022/01/26 09:00:46;;;;;;;14.82;9.38;;;2.10;99.90;;;;;;5031511;28;20108;-88
2022/01/26 09:03:15;;;;;;;14.75;8.95;;;2.10;99.90;;;;;;5016077;28;20042;-87
2022/01/26 09:05:42;;;;;;;16.80;9.00;;;2.20;99.90;;;;;;5030859;28;20567;-88
2022/01/26 09:08:09;;;;;;;12.73;8.90;;;2.30;99.90;;;;;;5031291;28;20052;-87
2022/01/26 09:10:38;;;;;;;21.98;9.63;;;2.30;99.90;;;;;;5030693;28;20068;-88
2022/01/26 09:13:06;;;;;;;14.88;9.13;;;2.30;99.90;;;;;;5016210;28;20046;-88
2022/01/26 09:15:33;;;;;;;12.05;8.20;;;2.20;99.90;;;;;;5031378;28;20049;-88
2022/01/26 09:18:03;;;;;;;15.48;9.30;;;2.30;99.90;;;;;;5030998;28;20050;-88
2022/01/26 09:20:34;;;;;;;14.43;9.13;;;2.30;99.90;;;;;;5031037;28;20049;-88
2022/01/26 09:23:01;;;;;;;12.90;8.27;;;2.30;99.90;;;;;;5030910;28;20042;-88
2022/01/26 09:25:33;;;;;;;14.95;9.05;;;2.40;99.90;;;;;;5030213;28;20054;-88
2022/01/26 09:28:00;;;;;;;14.75;9.23;;;2.50;99.90;;;;;;5015519;28;20045;-88
2022/01/26 09:30:27;;;;;;;16.15;9.50;;;2.50;99.90;;;;;;5015174;28;20053;-88
2022/01/26 09:32:54;;;;;;;19.27;9.85;;;2.50;99.90;;;;;;5030780;28;20046;-87
2022/01/26 09:35:20;;;;;;;12.80;9.10;;;2.50;99.90;;;;;;5030569;28;20056;-87
2022/01/26 09:37:47;;;;;;;12.73;8.70;;;2.50;99.90;;;;;;5030566;28;20054;-88
2022/01/26 09:40:14;;;;;;;14.57;8.85;;;2.50;99.90;;;;;;5030605;28;20141;-87
2022/01/26 09:42:41;;;;;;;16.95;9.32;;;2.50;99.90;;;;;;5030416;28;20066;-88
2022/01/26 09:45:08;;;;;;;11.57;8.48;;;2.50;99.90;;;;;;5030292;28;20485;-88
2022/01/26 09:47:35;;;;;;;17.45;10.68;;;2.60;99.90;;;;;;5014976;28;20486;-88
2022/01/26 09:50:22;;;;;;;20.33;9.40;;;2.70;99.90;;;;;;5014166;28;20050;-87
2022/01/26 09:52:49;;;;;;;14.45;8.82;;;2.90;99.90;;;;;;5015031;28;20052;-87
2022/01/26 09:55:16;;;;;;;14.07;9.15;;;3.00;99.90;;;;;;5030336;28;20396;-88
2022/01/26 09:57:44;;;;;;;17.25;8.80;;;3.10;99.90;;;;;;5028639;28;20060;-88
2022/01/26 10:00:12;;;;;;;16.02;8.85;;;3.10;99.90;;;;;;5028845;28;20050;-88
2022/01/26 10:02:39;;;;;;;19.35;9.32;;;3.00;99.90;;;;;;5028982;28;20061;-88
2022/01/26 10:05:10;;;;;;;14.77;7.75;;;3.10;99.90;;;;;;5030131;28;20054;-88
2022/01/26 10:07:53;;;;;;;14.57;8.63;;;3.00;99.90;;;;;;5013934;28;20413;-88
2022/01/26 10:16:00;;;;;;;14.45;8.40;;;2.80;99.90;;;;;;5014555;28;20137;-88
2022/01/26 10:18:31;;;;;;;13.20;8.23;;;3.00;99.90;;;;;;5030245;28;20050;-87
2022/01/26 10:21:01;;;;;;;14.13;8.00;;;3.00;99.90;;;;;;5032439;28;20052;-88
2022/01/26 10:23:34;;;;;;;17.08;9.50;;;3.00;99.90;;;;;;5014645;28;20129;-86
2022/01/26 10:26:03;;;;;;;;;;;3.00;99.90;;;;;;5014416;28;20478;-88
2022/01/26 10:28:53;;;;;;;15.75;8.95;;;2.90;99.90;;;;;;5013400;28;20301;-88
2022/01/26 10:31:33;;;;;;;17.20;8.95;;;2.90;99.90;;;;;;5029715;28;20049;-88
2022/01/26 10:34:06;;;;;;;19.58;9.10;;;2.90;99.90;;;;;;5028666;28;20137;-88
2022/01/26 10:36:37;;;;;;;14.93;9.13;;;3.00;99.90;;;;;;5029539;28;20054;-87
2022/01/26 10:39:08;;;;;;;19.45;9.27;;;2.90;99.90;;;;;;5029281;28;20050;-88
2022/01/26 10:41:37;;;;;;;19.42;9.02;;;2.90;99.90;;;;;;5029245;28;20046;-88
2022/01/26 10:44:05;;;;;;;17.85;9.73;;;3.00;99.90;;;;;;5029396;28;20429;-88
2022/01/26 10:46:39;;;;;;;29.95;9.95;;;3.10;99.90;;;;;;5013972;28;20409;-88
2022/01/26 10:54:37;;;;;;;18.77;9.25;;;3.30;99.90;;;;;;5014005;28;20057;-88
2022/01/26 10:57:10;;;;;;;21.73;9.55;;;3.30;99.90;;;;;;5029567;28;20518;-88
2022/01/26 10:59:42;;;;;;;17.70;9.13;;;3.40;99.90;;;;;;5029414;28;20052;-88
2022/01/26 11:02:10;;;;;;;18.15;10.23;;;3.50;99.90;;;;;;5014005;28;20046;-87
2022/01/26 11:04:40;;;;;;;15.45;9.13;;;3.40;99.90;;;;;;5013733;28;20418;-88
2022/01/26 11:07:13;;;;;;;13.20;8.57;;;3.50;99.90;;;;;;5029070;28;20060;-88
2022/01/26 11:09:43;;;;;;;17.40;9.60;;;3.40;99.90;;;;;;5028734;28;20057;-87
2022/01/26 11:12:12;;;;;;;17.08;9.50;;;3.40;99.90;;;;;;5028953;28;20053;-88
2022/01/26 11:14:42;;;;;;;20.38;9.43;;;3.40;99.90;;;;;;5028699;28;20053;-87
2022/01/26 11:17:37;;;;;;;13.70;8.32;;;3.40;99.90;;;;;;5013621;28;20050;-88
2022/01/26 11:20:33;;;;;;;16.63;10.50;;;3.40;99.90;;;;;;5011131;28;20061;-87
2022/01/26 11:23:04;;;;;;;15.00;10.23;;;3.40;99.90;;;;;;5012724;28;20495;-89
2022/01/26 11:25:42;;;;;;;18.10;9.85;;;3.40;99.90;;;;;;5013577;28;20108;-88
2022/01/26 11:28:18;;;;;;;15.80;9.40;;;3.40;99.90;;;;;;5029264;28;20494;-88
2022/01/26 11:30:47;;;;;;;16.58;10.40;;;3.50;99.90;;;;;;5028740;28;20411;-88
2022/01/26 11:33:20;;;;;;;14.38;9.43;;;3.40;99.90;;;;;;5012762;28;20061;-88
2022/01/26 11:35:50;;;;;;;22.10;10.52;;;3.40;99.90;;;;;;5012458;28;20524;-87
2022/01/26 11:46:58;;;;;;;15.73;9.60;;;3.50;99.90;;;;;;5013422;28;20104;-88
2022/01/26 11:49:27;;;;;;;18.05;8.90;;;3.40;99.90;;;;;;5028730;28;20493;-86
2022/01/26 11:51:57;;;;;;;21.52;10.23;;;3.50;99.90;;;;;;5028492;28;20053;-88
2022/01/26 11:54:28;;;;;;;16.85;9.65;;;3.50;99.90;;;;;;5012106;28;20054;-88
2022/01/26 11:57:01;;;;;;;13.70;8.60;;;3.50;99.90;;;;;;5013212;28;20052;-88
2022/01/26 11:59:31;;;;;;;18.25;9.20;;;3.60;99.90;;;;;;5013207;28;20085;-87
2022/01/26 12:02:19;;;;;;;14.25;8.10;;;3.70;99.90;;;;;;5028620;28;20141;-88
2022/01/26 12:04:47;;;;;;;15.32;9.30;;;3.70;99.90;;;;;;5012777;28;20085;-88
2022/01/26 12:07:23;;;;;;;14.88;8.82;;;3.70;99.90;;;;;;5012072;28;20046;-88
2022/01/26 12:09:50;;;;;;;15.32;9.15;;;3.70;99.90;;;;;;5028065;28;20553;-88
2022/01/26 12:12:22;;;;;;;15.18;9.10;;;3.60;99.90;;;;;;5028378;28;20053;-88
2022/01/26 12:14:59;;;;;;;13.55;8.48;;;3.70;99.90;;;;;;5028398;28;20089;-86
2022/01/26 12:17:29;;;;;;;19.90;9.90;;;3.70;99.90;;;;;;5028296;28;20089;-88
2022/01/26 12:45:21;;;;;;;46.35;11.15;;;2.90;99.90;;;;;;5015893;28;20054;-88
2022/01/26 12:47:51;;;;;;;13.43;9.27;;;2.70;99.90;;;;;;5015019;28;20046;-88
2022/01/26 12:50:18;;;;;;;22.02;10.32;;;2.60;99.90;;;;;;5031159;28;20045;-88
2022/01/26 12:52:50;;;;;;;19.20;10.40;;;2.50;99.90;;;;;;5014814;28;20061;-88
2022/01/26 12:55:30;;;;;;;17.00;10.80;;;2.40;99.90;;;;;;5015690;28;20056;-88
2022/01/26 12:57:57;;;;;;;33.35;12.15;;;2.40;99.90;;;;;;5016107;28;20108;-88
2022/01/26 13:00:25;;;;;;;16.83;10.70;;;2.30;99.90;;;;;;5014762;28;20049;-87
2022/01/26 13:02:52;;;;;;;30.25;10.73;;;2.40;99.90;;;;;;5014745;28;20056;-88
2022/01/26 13:05:26;;;;;;;17.67;10.93;;;2.40;99.90;;;;;;5014631;28;20085;-88
2022/01/26 13:08:04;;;;;;;16.27;10.27;;;2.40;99.90;;;;;;5014525;28;20053;-87
2022/01/26 13:10:32;;;;;;;23.05;11.43;;;2.40;99.90;;;;;;5015270;28;20057;-87
2022/01/26 13:13:10;;;;;;;26.13;11.23;;;2.30;99.90;;;;;;5014864;28;20140;-88
2022/01/26 13:15:53;;;;;;;18.38;11.00;;;2.30;99.90;;;;;;5014154;28;20057;-88
2022/01/26 13:19:00;;;;;;;17.15;10.30;;;2.30;99.90;;;;;;5014402;28;20053;-87
2022/01/26 13:21:43;;;;;;;25.17;10.82;;;2.40;99.90;;;;;;5014591;28;20053;-87
2022/01/26 13:24:36;;;;;;;18.35;11.27;;;2.30;99.90;;;;;;5014219;28;20056;-88
2022/01/26 13:27:13;;;;;;;17.77;11.52;;;2.20;99.90;;;;;;5015399;28;20046;-88
2022/01/26 13:35:15;;;;;;;26.17;12.75;;;2.20;99.90;;;;;;5015316;28;20080;-88
2022/01/26 13:40:30;;;;;;;22.95;13.07;;;2.30;99.90;;;;;;5015141;28;20085;-87
2022/01/26 13:44:05;;;;;;;23.20;12.80;;;2.30;99.90;;;;;;5014103;28;20050;-88
2022/01/26 13:50:55;;;;;;;23.33;12.35;;;2.40;99.90;;;;;;5014783;28;20125;-88
2022/01/26 13:53:34;;;;;;;18.38;11.93;;;2.40;99.90;;;;;;5013830;28;20046;-87
2022/01/26 13:56:12;;;;;;;25.33;12.05;;;2.30;99.90;;;;;;5013649;28;20560;-88
2022/01/26 13:58:58;;;;;;;22.33;12.35;;;2.30;99.90;;;;;;5013661;28;20042;-88
2022/01/26 14:01:25;;;;;;;19.17;12.30;;;2.30;99.90;;;;;;5013506;28;20053;-88
2022/01/26 14:03:57;;;;;;;20.08;11.75;;;2.30;99.90;;;;;;5013237;28;20060;-88
2022/01/26 14:06:24;;;;;;;48.92;13.80;;;2.30;99.90;;;;;;5013479;28;20085;-88
2022/01/26 14:08:50;;;;;;;34.17;13.73;;;2.30;99.90;;;;;;5012743;28;20057;-87
2022/01/26 14:11:17;;;;;;;33.60;13.73;;;2.30;99.90;;;;;;5013602;28;20128;-88
2022/01/26 14:13:45;;;;;;;21.67;12.77;;;2.40;99.90;;;;;;5014152;28;20052;-87
2022/01/26 14:16:15;;;;;;;21.45;11.85;;;2.50;99.90;;;;;;5013001;28;20133;-88
2022/01/26 14:19:00;;;;;;;18.80;11.50;;;2.50;99.90;;;;;;5013393;28;20056;-88
2022/01/26 14:26:49;;;;;;;21.23;12.32;;;2.50;99.90;;;;;;5013989;28;20077;-87
2022/01/26 14:29:52;;;;;;;20.85;11.77;;;2.50;99.90;;;;;;5013064;28;20085;-88
2022/01/26 14:32:19;;;;;;;20.88;12.65;;;2.40;99.90;;;;;;5014120;28;20050;-88
2022/01/26 14:40:42;;;;;;;19.27;12.73;;;2.50;99.90;;;;;;5013983;28;20140;-88
2022/01/26 14:51:46;;;;;;;21.75;13.05;;;2.20;99.90;;;;;;5013715;28;20060;-88
2022/01/26 14:54:26;;;;;;;32.10;14.15;;;2.20;99.90;;;;;;5013722;28;20057;-88
2022/01/26 15:30:24;;;;;;;30.35;13.18;;;1.70;99.90;;;;;;5013388;28;20053;-87
2022/01/26 15:33:32;;;;;;;36.92;14.23;;;1.70;99.90;;;;;;5012521;28;20060;-87
2022/01/26 15:41:53;;;;;;;25.05;14.35;;;1.60;99.90;;;;;;5013343;28;20050;-87
2022/01/26 15:50:25;;;;;;;26.35;12.85;;;1.50;99.90;;;;;;5013757;28;20119;-87
2022/01/26 15:58:44;;;;;;;22.08;13.05;;;1.50;99.90;;;;;;5013058;28;20045;-88
2022/01/26 16:06:59;;;;;;;31.35;15.63;;;1.40;99.90;;;;;;5016644;28;20265;-87
2022/01/26 16:53:49;;;;;;;26.45;13.93;;;1.30;99.90;;;;;;5015137;28;20049;-88
2022/01/26 17:55:08;;;;;;;36.50;18.55;;;1.20;99.90;;;;;;5014346;28;20491;-87
2022/01/26 17:55:16;;;;;;;34.15;16.17;;;1.30;99.90;;;;;;5013963;28;20054;-88
2022/01/26 18:15:34;;;;;;;32.40;15.18;;;1.20;99.90;;;;;;5013508;28;20078;-88
2022/01/26 18:26:29;;;;;;;38.58;16.17;;;1.20;99.90;;;;;;5013264;28;20127;-87
2022/01/26 18:32:05;;;;;;;35.50;14.90;;;1.20;99.90;;;;;;5013323;28;20140;-88
2022/01/26 18:40:31;;;;;;;35.53;16.52;;;1.30;99.90;;;;;;5013071;28;20096;-88
2022/01/26 18:51:30;;;;;;;30.98;15.90;;;1.40;99.90;;;;;;5013019;28;20104;-87
2022/01/26 18:53:57;;;;;;;40.28;16.15;;;1.40;99.90;;;;;;5011466;28;20133;-87
2022/01/26 18:56:24;;;;;;;42.33;18.05;;;1.40;99.90;;;;;;5011760;28;20089;-87
2022/01/26 18:58:51;;;;;;;36.78;18.60;;;1.40;99.90;;;;;;5012040;28;20046;-88
2022/01/26 19:01:18;;;;;;;34.85;16.30;;;1.40;99.90;;;;;;5011800;28;20058;-88
2022/01/26 19:03:45;;;;;;;45.22;18.55;;;1.40;99.90;;;;;;5011826;28;20053;-87
2022/01/26 19:06:12;;;;;;;33.53;16.83;;;1.50;99.90;;;;;;5012741;28;20053;-87